Time;durP1;ratioP1;P1;durP2;ratioP2;P2;SDS_P1;SDS_P2;PMS_P1;PMS_P2;Temp;Humidity;BMP_temperature;BMP_pressure;BME280_temperature;BME280_humidity;BME280_pressure;Samples;Min_cycle;Max_cycle;Signal;HPM_P1;HPM_P2
2022/04/04 00:01:44;;;;;;;;;;;;;;;;;;5034778;28;1196;-60
2022/04/04 00:04:09;;;;;;;;;;;;;;;;;;5052538;28;896;-60
2022/04/04 00:06:34;;;;;;;;;;;;;;;;;;5052517;28;805;-60
2022/04/04 00:09:00;;;;;;;;;;;;;;;;;;5052476;28;801;-60
2022/04/04 00:11:25;;;;;;;;;;;;;;;;;;5052321;28;801;-59
2022/04/04 00:13:51;;;;;;;;;;;;;;;;;;5052760;28;1965;-59
2022/04/04 00:16:16;;;;;;;;;;;;;;;;;;5034822;28;825;-60
2022/04/04 00:18:41;;;;;;;;;;;;;;;;;;5052650;28;924;-60
2022/04/04 00:21:06;;;;;;;;;;;;;;;;;;5052237;28;951;-60
2022/04/04 00:23:32;;;;;;;;;;;;;;;;;;5052564;28;773;-60
2022/04/04 00:25:57;;;;;;;;;;;;;;;;;;5052281;28;987;-60
2022/04/04 00:28:23;;;;;;;;;;;;;;;;;;5052613;28;911;-60
2022/04/04 00:30:48;;;;;;;;;;;;;;;;;;5052493;28;940;-60
2022/04/04 00:33:14;;;;;;;;;;;;;;;;;;5052736;28;811;-60
2022/04/04 00:35:39;;;;;;;;;;;;;;;;;;5051950;28;1897;-60
2022/04/04 00:38:08;;;;;;;;;;;;;;;;;;5052320;28;809;-60
2022/04/04 00:40:33;;;;;;;;;;;;;;;;;;5051740;28;1192;-60
2022/04/04 00:42:58;;;;;;;;;;;;;;;;;;5052308;28;841;-60
2022/04/04 00:45:24;;;;;;;;;;;;;;;;;;5052394;28;987;-60
2022/04/04 00:47:49;;;;;;;;;;;;;;;;;;5052345;28;1011;-60
2022/04/04 00:50:14;;;;;;;;;;;;;;;;;;5052261;28;947;-60
2022/04/04 00:52:39;;;;;;;;;;;;;;;;;;5052151;28;1058;-60
2022/04/04 00:55:08;;;;;;;;;;;;;;;;;;5052104;28;1906;-61
2022/04/04 00:57:34;;;;;;;;;;;;;;;;;;5052168;28;997;-60
2022/04/04 01:00:00;;;;;;;;;;;;;;;;;;5051946;28;987;-59
2022/04/04 01:02:25;;;;;;;;;;;;;;;;;;5033456;28;928;-60
2022/04/04 01:04:50;;;;;;;;;;;;;;;;;;5051738;28;747;-60
2022/04/04 01:07:16;;;;;;;;;;;;;;;;;;5033540;28;864;-60
2022/04/04 01:09:41;;;;;;;;;;;;;;;;;;5051468;28;829;-60
2022/04/04 01:12:07;;;;;;;;;;;;;;;;;;5051340;28;999;-59
2022/04/04 01:14:37;;;;;;;;;;;;;;;;;;5051391;28;1914;-59
2022/04/04 01:17:03;;;;;;;;;;;;;;;;;;5051201;28;917;-60
2022/04/04 01:19:28;;;;;;;;;;;;;;;;;;5050621;28;1235;-60
2022/04/04 01:21:54;;;;;;;;;;;;;;;;;;5044484;28;1169;-59
2022/04/04 01:24:19;;;;;;;;;;;;;;;;;;5029239;28;1138;-60
2022/04/04 01:26:45;;;;;;;;;;;;;;;;;;5031094;28;845;-59
2022/04/04 01:29:11;;;;;;;;;;;;;;;;;;5031500;28;865;-59
2022/04/04 01:31:36;;;;;;;;;;;;;;;;;;5031266;28;1031;-59
2022/04/04 01:34:01;;;;;;;;;;;;;;;;;;5030940;28;1914;-59
2022/04/04 01:36:27;;;;;;;;;;;;;;;;;;5030923;28;805;-59
2022/04/04 01:38:52;;;;;;;;;;;;;;;;;;5031083;28;841;-59
2022/04/04 01:41:17;;;;;;;;;;;;;;;;;;5031369;28;1248;-59
2022/04/04 01:43:42;;;;;;;;;;;;;;;;;;5031255;28;1003;-60
2022/04/04 01:48:52;;;;;;;;;;;;;;;;;;5031306;28;683;-61
2022/04/04 01:51:18;;;;;;;;;;;;;;;;;;5031098;28;773;-60
2022/04/04 01:53:43;;;;;;;;;;;;;;;;;;5031119;28;999;-60
2022/04/04 01:56:09;;;;;;;;;;;;;;;;;;5030956;28;1973;-60
2022/04/04 01:58:35;;;;;;;;;;;;;;;;;;5030842;28;1125;-60
2022/04/04 02:01:02;;;;;;;;;;;;;;;;;;5030787;28;845;-60
2022/04/04 02:03:33;;;;;;;;;;;;;;;;;;5030946;28;818;-60
2022/04/04 02:05:59;;;;;;;;;;;;;;;;;;5030617;28;943;-60
2022/04/04 02:08:25;;;;;;;;;;;;;;;;;;5031190;28;826;-60
2022/04/04 02:10:50;;;;;;;;;;;;;;;;;;5013156;28;852;-59
2022/04/04 02:13:16;;;;;;;;;;;;;;;;;;5013899;28;869;-59
2022/04/04 02:15:41;;;;;;;;;;;;;;;;;;5030970;28;1897;-60
2022/04/04 02:18:07;;;;;;;;;;;;;;;;;;5031345;28;961;-60
2022/04/04 02:20:32;;;;;;;;;;;;;;;;;;5033519;28;888;-60
2022/04/04 02:22:57;;;;;;;;;;;;;;;;;;5035051;28;880;-60
2022/04/04 02:25:22;;;;;;;;;;;;;;;;;;5017679;28;899;-60
2022/04/04 02:27:48;;;;;;;;;;;;;;;;;;5034825;28;971;-60
2022/04/04 02:30:13;;;;;;;;;;;;;;;;;;5035144;28;1185;-60
2022/04/04 02:32:39;;;;;;;;;;;;;;;;;;5034552;28;978;-59
2022/04/04 02:35:04;;;;;;;;;;;;;;;;;;5034415;28;1965;-59
2022/04/04 02:37:30;;;;;;;;;;;;;;;;;;5034483;28;948;-60
2022/04/04 02:39:57;;;;;;;;;;;;;;;;;;5033675;28;1172;-60
2022/04/04 02:42:22;;;;;;;;;;;;;;;;;;5034474;28;880;-60
2022/04/04 02:44:48;;;;;;;;;;;;;;;;;;5034002;28;924;-60
2022/04/04 02:47:13;;;;;;;;;;;;;;;;;;5034182;28;956;-60
2022/04/04 02:49:38;;;;;;;;;;;;;;;;;;5015648;28;904;-60
2022/04/04 02:52:04;;;;;;;;;;;;;;;;;;5033853;28;1130;-60
2022/04/04 02:54:29;;;;;;;;;;;;;;;;;;5034347;28;1906;-60
2022/04/04 02:56:54;;;;;;;;;;;;;;;;;;5033318;28;825;-60
2022/04/04 02:59:20;;;;;;;;;;;;;;;;;;5034065;28;1119;-60
2022/04/04 03:01:48;;;;;;;;;;;;;;;;;;5016015;28;889;-60
2022/04/04 03:04:17;;;;;;;;;;;;;;;;;;5015877;28;955;-60
2022/04/04 03:06:43;;;;;;;;;;;;;;;;;;5033560;28;1836;-60
2022/04/04 03:09:08;;;;;;;;;;;;;;;;;;5033459;28;899;-61
2022/04/04 03:11:34;;;;;;;;;;;;;;;;;;5033935;28;880;-60
2022/04/04 03:13:59;;;;;;;;;;;;;;;;;;5033114;28;1899;-60
2022/04/04 03:16:24;;;;;;;;;;;;;;;;;;5033793;28;913;-60
2022/04/04 03:18:53;;;;;;;;;;;;;;;;;;5033345;28;959;-60
2022/04/04 03:21:18;;;;;;;;;;;;;;;;;;5016435;28;1011;-60
2022/04/04 03:23:43;;;;;;;;;;;;;;;;;;5033061;28;849;-60
2022/04/04 03:26:09;;;;;;;;;;;;;;;;;;5032918;28;1038;-60
2022/04/04 03:28:34;;;;;;;;;;;;;;;;;;5033725;28;825;-60
2022/04/04 03:31:00;;;;;;;;;;;;;;;;;;5032649;28;892;-60
2022/04/04 03:33:25;;;;;;;;;;;;;;;;;;5033503;28;888;-59
2022/04/04 03:35:51;;;;;;;;;;;;;;;;;;5032929;28;1957;-60
2022/04/04 03:38:16;;;;;;;;;;;;;;;;;;5033165;28;801;-60
2022/04/04 03:40:41;;;;;;;;;;;;;;;;;;5032734;28;1178;-60
2022/04/04 03:43:07;;;;;;;;;;;;;;;;;;5033017;28;1062;-60
2022/04/04 03:45:33;;;;;;;;;;;;;;;;;;5032996;28;889;-60
2022/04/04 03:47:58;;;;;;;;;;;;;;;;;;5032698;28;786;-60
2022/04/04 03:50:24;;;;;;;;;;;;;;;;;;5033291;28;1024;-60
2022/04/04 03:52:55;;;;;;;;;;;;;;;;;;5033762;28;904;-60
2022/04/04 03:55:22;;;;;;;;;;;;;;;;;;5033579;28;1910;-60
2022/04/04 03:57:48;;;;;;;;;;;;;;;;;;5033643;28;934;-60
2022/04/04 04:00:14;;;;;;;;;;;;;;;;;;5015835;28;880;-60
2022/04/04 04:02:40;;;;;;;;;;;;;;;;;;5033304;28;861;-60
2022/04/04 04:05:06;;;;;;;;;;;;;;;;;;5032967;28;813;-60
2022/04/04 04:07:31;;;;;;;;;;;;;;;;;;5033270;28;793;-60
2022/04/04 04:09:56;;;;;;;;;;;;;;;;;;5014672;28;1293;-60
2022/04/04 04:12:22;;;;;;;;;;;;;;;;;;5033342;28;951;-59
2022/04/04 04:14:47;;;;;;;;;;;;;;;;;;5032710;28;1898;-60
2022/04/04 04:17:15;;;;;;;;;;;;;;;;;;5032639;28;956;-59
2022/04/04 04:22:24;;;;;;;;;;;;;;;;;;5033107;28;710;-59
2022/04/04 04:24:50;;;;;;;;;;;;;;;;;;5032790;28;863;-60
2022/04/04 04:27:16;;;;;;;;;;;;;;;;;;5032108;28;1327;-59
2022/04/04 04:29:41;;;;;;;;;;;;;;;;;;5015029;28;897;-60
2022/04/04 04:32:10;;;;;;;;;;;;;;;;;;5014735;28;917;-60
2022/04/04 04:34:35;;;;;;;;;;;;;;;;;;5015495;28;1910;-60
2022/04/04 04:37:01;;;;;;;;;;;;;;;;;;5041670;28;1227;-60
2022/04/04 04:39:26;;;;;;;;;;;;;;;;;;5051343;28;1361;-60
2022/04/04 04:41:51;;;;;;;;;;;;;;;;;;5032868;28;1274;-60
2022/04/04 04:44:17;;;;;;;;;;;;;;;;;;5032655;28;1146;-60
2022/04/04 04:46:42;;;;;;;;;;;;;;;;;;5014352;28;1161;-59
2022/04/04 04:49:07;;;;;;;;;;;;;;;;;;5031614;28;1173;-59
2022/04/04 04:51:32;;;;;;;;;;;;;;;;;;5032537;28;1086;-59
2022/04/04 04:53:58;;;;;;;;;;;;;;;;;;5031714;28;813;-59
2022/04/04 04:56:25;;;;;;;;;;;;;;;;;;5032338;28;1910;-59
2022/04/04 04:58:50;;;;;;;;;;;;;;;;;;5032241;28;1018;-59
2022/04/04 05:01:16;;;;;;;;;;;;;;;;;;5032207;28;900;-59
2022/04/04 05:03:41;;;;;;;;;;;;;;;;;;5014231;28;980;-59
2022/04/04 05:06:06;;;;;;;;;;;;;;;;;;5031631;28;948;-59
2022/04/04 05:08:32;;;;;;;;;;;;;;;;;;5031757;28;873;-59
2022/04/04 05:10:59;;;;;;;;;;;;;;;;;;5031407;28;872;-59
2022/04/04 05:13:26;;;;;;;;;;;;;;;;;;5031934;28;894;-59
2022/04/04 05:15:52;;;;;;;;;;;;;;;;;;5031115;28;1955;-59
2022/04/04 05:18:17;;;;;;;;;;;;;;;;;;5032119;28;884;-59
2022/04/04 05:20:43;;;;;;;;;;;;;;;;;;5031963;28;1146;-59
2022/04/04 05:23:08;;;;;;;;;;;;;;;;;;5031709;28;775;-59
2022/04/04 05:25:33;;;;;;;;;;;;;;;;;;5031880;28;960;-59
2022/04/04 05:27:59;;;;;;;;;;;;;;;;;;5031601;28;932;-59
2022/04/04 05:30:25;;;;;;;;;;;;;;;;;;5031946;28;1066;-59
2022/04/04 05:32:50;;;;;;;;;;;;;;;;;;5031845;28;869;-59
2022/04/04 05:35:16;;;;;;;;;;;;;;;;;;5031410;28;1945;-59
2022/04/04 05:37:42;;;;;;;;;;;;;;;;;;5031467;28;1077;-59
2022/04/04 05:40:07;;;;;;;;;;;;;;;;;;5031128;28;1004;-60
2022/04/04 05:42:34;;;;;;;;;;;;;;;;;;5031628;28;845;-59
2022/04/04 05:44:59;;;;;;;;;;;;;;;;;;5031302;28;864;-59
2022/04/04 05:47:26;;;;;;;;;;;;;;;;;;5030991;28;881;-60
2022/04/04 05:49:51;;;;;;;;;;;;;;;;;;5031355;28;924;-60
2022/04/04 05:52:17;;;;;;;;;;;;;;;;;;5031226;28;858;-60
2022/04/04 05:54:55;;;;;;;;;;;;;;;;;;5030941;28;1989;-59
2022/04/04 05:57:21;;;;;;;;;;;;;;;;;;4998813;28;1327;-60
2022/04/04 05:59:46;;;;;;;;;;;;;;;;;;5031304;28;837;-60
2022/04/04 06:02:13;;;;;;;;;;;;;;;;;;5030897;28;885;-60
2022/04/04 06:04:38;;;;;;;;;;;;;;;;;;5031219;28;798;-60
2022/04/04 06:07:04;;;;;;;;;;;;;;;;;;5030790;28;771;-60
2022/04/04 06:09:29;;;;;;;;;;;;;;;;;;5031613;28;900;-59
2022/04/04 06:11:54;;;;;;;;;;;;;;;;;;5030844;28;880;-60
2022/04/04 06:14:19;;;;;;;;;;;;;;;;;;5031346;28;1902;-60
2022/04/04 06:16:45;;;;;;;;;;;;;;;;;;5031211;28;802;-60
2022/04/04 06:19:10;;;;;;;;;;;;;;;;;;5030577;28;782;-59
2022/04/04 06:21:36;;;;;;;;;;;;;;;;;;5031077;28;899;-59
2022/04/04 06:24:02;;;;;;;;;;;;;;;;;;5030567;28;833;-59
2022/04/04 06:26:30;;;;;;;;;;;;;;;;;;5012502;28;1220;-60
2022/04/04 06:28:55;;;;;;;;;;;;;;;;;;5030693;28;881;-60
2022/04/04 06:31:21;;;;;;;;;;;;;;;;;;5030457;28;857;-60
2022/04/04 06:33:46;;;;;;;;;;;;;;;;;;5030546;28;952;-60
2022/04/04 06:36:11;;;;;;;;;;;;;;;;;;5029729;28;1902;-60
2022/04/04 06:38:37;;;;;;;;;;;;;;;;;;5030512;28;999;-59
2022/04/04 06:41:02;;;;;;;;;;;;;;;;;;5030131;28;1079;-59
2022/04/04 06:43:27;;;;;;;;;;;;;;;;;;5030609;28;893;-59
2022/04/04 06:45:52;;;;;;;;;;;;;;;;;;5030427;28;947;-59
2022/04/04 06:48:18;;;;;;;;;;;;;;;;;;5030416;28;880;-59
2022/04/04 06:50:43;;;;;;;;;;;;;;;;;;5030576;28;822;-68
2022/04/04 06:53:09;;;;;;;;;;;;;;;;;;5030305;28;1081;-68
2022/04/04 06:55:34;;;;;;;;;;;;;;;;;;5030484;28;1910;-69
2022/04/04 06:58:00;;;;;;;;;;;;;;;;;;5030128;28;989;-69
2022/04/04 07:00:25;;;;;;;;;;;;;;;;;;5030714;28;825;-69
2022/04/04 07:02:51;;;;;;;;;;;;;;;;;;5030999;28;801;-69
2022/04/04 07:05:16;;;;;;;;;;;;;;;;;;5030730;28;844;-69
2022/04/04 07:07:42;;;;;;;;;;;;;;;;;;5034671;28;900;-69
2022/04/04 07:10:07;;;;;;;;;;;;;;;;;;5033668;28;775;-68
2022/04/04 07:12:34;;;;;;;;;;;;;;;;;;5033934;28;901;-68
2022/04/04 07:14:59;;;;;;;;;;;;;;;;;;5016263;28;1929;-68
2022/04/04 07:17:24;;;;;;;;;;;;;;;;;;5033619;28;1172;-68
2022/04/04 07:19:52;;;;;;;;;;;;;;;;;;5015814;28;934;-68
2022/04/04 07:22:17;;;;;;;;;;;;;;;;;;5015917;28;937;-68
2022/04/04 07:24:42;;;;;;;;;;;;;;;;;;5034153;28;1010;-69
2022/04/04 07:27:08;;;;;;;;;;;;;;;;;;5033521;28;845;-69
2022/04/04 07:29:33;;;;;;;;;;;;;;;;;;5033151;28;864;-68
2022/04/04 07:31:59;;;;;;;;;;;;;;;;;;5033655;28;853;-68
2022/04/04 07:34:24;;;;;;;;;;;;;;;;;;5033485;28;1957;-68
2022/04/04 07:36:49;;;;;;;;;;;;;;;;;;5033883;28;844;-68
2022/04/04 07:39:15;;;;;;;;;;;;;;;;;;5033425;28;766;-68
2022/04/04 07:41:40;;;;;;;;;;;;;;;;;;5033919;28;1023;-68
2022/04/04 07:44:06;;;;;;;;;;;;;;;;;;5033311;28;909;-68
2022/04/04 07:46:31;;;;;;;;;;;;;;;;;;5040294;28;1240;-68
2022/04/04 07:48:57;;;;;;;;;;;;;;;;;;5036819;28;1118;-68
2022/04/04 07:51:22;;;;;;;;;;;;;;;;;;5019279;28;1357;-68
2022/04/04 07:53:48;;;;;;;;;;;;;;;;;;5032914;28;1252;-68
2022/04/04 07:56:13;;;;;;;;;;;;;;;;;;5032860;28;1914;-70
2022/04/04 07:58:38;;;;;;;;;;;;;;;;;;5033472;28;1217;-70
2022/04/04 08:01:03;;;;;;;;;;;;;;;;;;5032963;28;1173;-70
2022/04/04 08:03:29;;;;;;;;;;;;;;;;;;5043629;28;1157;-70
2022/04/04 08:05:55;;;;;;;;;;;;;;;;;;5034490;28;1213;-70
2022/04/04 08:08:20;;;;;;;;;;;;;;;;;;5053237;28;896;-69
2022/04/04 08:10:45;;;;;;;;;;;;;;;;;;5035609;28;833;-70
2022/04/04 08:13:11;;;;;;;;;;;;;;;;;;5053291;28;651;-69
2022/04/04 08:15:36;;;;;;;;;;;;;;;;;;5052910;28;1894;-69
2022/04/04 08:18:03;;;;;;;;;;;;;;;;;;5051735;28;833;-69
2022/04/04 08:20:29;;;;;;;;;;;;;;;;;;5052412;28;944;-70
2022/04/04 08:22:54;;;;;;;;;;;;;;;;;;5052809;28;845;-70
2022/04/04 08:25:19;;;;;;;;;;;;;;;;;;5052808;28;847;-69
2022/04/04 08:27:45;;;;;;;;;;;;;;;;;;5053298;28;848;-69
2022/04/04 08:30:12;;;;;;;;;;;;;;;;;;5052894;28;866;-70
2022/04/04 08:32:39;;;;;;;;;;;;;;;;;;5052602;28;873;-68
2022/04/04 08:35:06;;;;;;;;;;;;;;;;;;5052500;28;1906;-69
2022/04/04 08:37:33;;;;;;;;;;;;;;;;;;5052164;28;890;-69
2022/04/04 08:39:58;;;;;;;;;;;;;;;;;;5052405;28;1299;-69
2022/04/04 08:42:26;;;;;;;;;;;;;;;;;;5052235;28;988;-70
2022/04/04 08:44:54;;;;;;;;;;;;;;;;;;5052076;28;829;-69
2022/04/04 08:47:20;;;;;;;;;;;;;;;;;;5051616;28;837;-69
2022/04/04 08:49:46;;;;;;;;;;;;;;;;;;5052476;28;955;-69
2022/04/04 08:52:12;;;;;;;;;;;;;;;;;;5052038;28;837;-69
2022/04/04 08:54:37;;;;;;;;;;;;;;;;;;5051598;28;1901;-69
2022/04/04 08:57:02;;;;;;;;;;;;;;;;;;5051643;28;853;-70
2022/04/04 08:59:27;;;;;;;;;;;;;;;;;;5051439;28;1119;-69
2022/04/04 09:01:53;;;;;;;;;;;;;;;;;;5051644;28;841;-69
2022/04/04 09:04:19;;;;;;;;;;;;;;;;;;5051508;28;854;-69
2022/04/04 09:06:54;;;;;;;;;;;;;;;;;;5033742;28;917;-69
2022/04/04 09:09:19;;;;;;;;;;;;;;;;;;5051460;28;881;-70
2022/04/04 09:11:52;;;;;;;;;;;;;;;;;;5052036;28;819;-69
2022/04/04 09:14:20;;;;;;;;;;;;;;;;;;5051069;28;1902;-69
2022/04/04 09:16:53;;;;;;;;;;;;;;;;;;5033780;28;1323;-69
2022/04/04 09:19:31;;;;;;;;;;;;;;;;;;5033585;28;860;-69
2022/04/04 09:21:56;;;;;;;;;;;;;;;;;;5051401;28;973;-69
2022/04/04 09:24:41;;;;;;;;;;;;;;;;;;5051251;28;1155;-70
2022/04/04 09:27:13;;;;;;;;;;;;;;;;;;5051530;28;943;-70
2022/04/04 09:29:42;;;;;;;;;;;;;;;;;;5051462;28;872;-69
2022/04/04 09:32:17;;;;;;;;;;;;;;;;;;5051450;28;920;-70
2022/04/04 09:35:00;;;;;;;;;;;;;;;;;;5051069;28;1887;-69
2022/04/04 09:37:27;;;;;;;;;;;;;;;;;;5050682;28;1000;-69
2022/04/04 09:40:04;;;;;;;;;;;;;;;;;;5033116;28;1340;-70
2022/04/04 09:42:32;;;;;;;;;;;;;;;;;;5051033;28;982;-69
2022/04/04 09:44:58;;;;;;;;;;;;;;;;;;5051138;28;938;-69
2022/04/04 09:47:23;;;;;;;;;;;;;;;;;;5050676;28;797;-69
2022/04/04 09:49:49;;;;;;;;;;;;;;;;;;5033848;28;915;-69
2022/04/04 09:52:14;;;;;;;;;;;;;;;;;;5050948;28;836;-69
2022/04/04 09:54:42;;;;;;;;;;;;;;;;;;5050724;28;1914;-70
2022/04/04 09:57:15;;;;;;;;;;;;;;;;;;5050471;28;1010;-69
2022/04/04 09:59:41;;;;;;;;;;;;;;;;;;5050650;28;857;-69
2022/04/04 10:02:07;;;;;;;;;;;;;;;;;;5050830;28;841;-70
2022/04/04 10:04:33;;;;;;;;;;;;;;;;;;5050717;28;793;-69
2022/04/04 10:07:02;;;;;;;;;;;;;;;;;;5050508;28;888;-70
2022/04/04 10:09:28;;;;;;;;;;;;;;;;;;5049738;28;832;-69
2022/04/04 10:11:54;;;;;;;;;;;;;;;;;;5051003;28;926;-69
2022/04/04 10:14:19;;;;;;;;;;;;;;;;;;5051138;28;1905;-70
2022/04/04 10:16:45;;;;;;;;;;;;;;;;;;5032541;28;936;-70
2022/04/04 10:19:11;;;;;;;;;;;;;;;;;;5050595;28;1111;-69
2022/04/04 10:21:37;;;;;;;;;;;;;;;;;;5051241;28;813;-70
2022/04/04 10:24:05;;;;;;;;;;;;;;;;;;5050941;28;948;-70
2022/04/04 10:26:32;;;;;;;;;;;;;;;;;;5050573;28;1015;-61
2022/04/04 10:29:12;;;;;;;;;;;;;;;;;;5050880;28;810;-61
2022/04/04 10:31:42;;;;;;;;;;;;;;;;;;5032500;28;852;-61
2022/04/04 10:34:11;;;;;;;;;;;;;;;;;;5050414;28;821;-61
2022/04/04 10:36:37;;;;;;;;;;;;;;;;;;5050405;28;1949;-62
2022/04/04 10:39:02;;;;;;;;;;;;;;;;;;5050323;28;880;-61
2022/04/04 10:41:28;;;;;;;;;;;;;;;;;;5052455;28;1307;-61
2022/04/04 10:43:54;;;;;;;;;;;;;;;;;;5054413;28;865;-61
2022/04/04 10:46:20;;;;;;;;;;;;;;;;;;5053681;28;978;-62
2022/04/04 10:48:50;;;;;;;;;;;;;;;;;;5053990;28;807;-61
2022/04/04 10:51:20;;;;;;;;;;;;;;;;;;5036333;28;924;-61
2022/04/04 10:53:48;;;;;;;;;;;;;;;;;;5054147;28;1537;-61
2022/04/04 10:56:24;;;;;;;;;;;;;;;;;;5053711;28;1898;-61
2022/04/04 10:58:53;;;;;;;;;;;;;;;;;;5054319;28;1027;-61
2022/04/04 11:01:20;;;;;;;;;;;;;;;;;;5053776;28;1258;-61
2022/04/04 11:03:52;;;;;;;;;;;;;;;;;;5054304;28;797;-62
2022/04/04 11:09:11;;;;;;;;;;;;;;;;;;5054013;28;871;-61
2022/04/04 11:11:40;;;;;;;;;;;;;;;;;;5053751;28;924;-61
2022/04/04 11:14:06;;;;;;;;;;;;;;;;;;5053911;28;945;-61
2022/04/04 11:16:50;;;;;;;;;;;;;;;;;;5053431;28;1905;-60
2022/04/04 11:19:18;;;;;;;;;;;;;;;;;;5053490;28;848;-60
2022/04/04 11:21:43;;;;;;;;;;;;;;;;;;5053377;28;1118;-60
2022/04/04 11:24:09;;;;;;;;;;;;;;;;;;5053305;28;876;-60
2022/04/04 11:26:35;;;;;;;;;;;;;;;;;;5053753;28;856;-61
2022/04/04 11:29:01;;;;;;;;;;;;;;;;;;5035615;28;936;-61
2022/04/04 11:31:26;;;;;;;;;;;;;;;;;;5053183;28;999;-61
2022/04/04 11:33:53;;;;;;;;;;;;;;;;;;5053302;28;1038;-61
2022/04/04 11:36:23;;;;;;;;;;;;;;;;;;5035066;28;2087;-61
2022/04/04 11:38:51;;;;;;;;;;;;;;;;;;5053310;28;766;-61
2022/04/04 11:41:17;;;;;;;;;;;;;;;;;;5053044;28;1336;-61
2022/04/04 11:43:48;;;;;;;;;;;;;;;;;;5053021;28;941;-61
2022/04/04 11:46:18;;;;;;;;;;;;;;;;;;5053230;28;916;-61
2022/04/04 11:48:51;;;;;;;;;;;;;;;;;;5052858;28;864;-61
2022/04/04 11:51:17;;;;;;;;;;;;;;;;;;5052954;28;841;-61
2022/04/04 11:53:43;;;;;;;;;;;;;;;;;;5053210;28;1068;-61
2022/04/04 11:56:13;;;;;;;;;;;;;;;;;;5052979;28;1914;-61
2022/04/04 11:58:51;;;;;;;;;;;;;;;;;;5053352;28;910;-60
2022/04/04 12:01:16;;;;;;;;;;;;;;;;;;5053064;28;825;-61
2022/04/04 12:03:49;;;;;;;;;;;;;;;;;;5053146;28;801;-61
2022/04/04 12:06:15;;;;;;;;;;;;;;;;;;5053501;28;815;-61
2022/04/04 12:08:43;;;;;;;;;;;;;;;;;;5053481;28;866;-61
2022/04/04 12:11:09;;;;;;;;;;;;;;;;;;5052975;28;778;-61
2022/04/04 12:13:47;;;;;;;;;;;;;;;;;;5035262;28;857;-61
2022/04/04 12:16:12;;;;;;;;;;;;;;;;;;5051522;28;1898;-61
2022/04/04 12:18:37;;;;;;;;;;;;;;;;;;5053308;28;809;-61
2022/04/04 12:21:03;;;;;;;;;;;;;;;;;;5052613;28;896;-61
2022/04/04 12:26:14;;;;;;;;;;;;;;;;;;5052623;28;1450;-61
2022/04/04 12:28:42;;;;;;;;;;;;;;;;;;5052943;28;979;-61
2022/04/04 12:31:13;;;;;;;;;;;;;;;;;;5052812;28;1727;-61
2022/04/04 12:33:38;;;;;;;;;;;;;;;;;;5052771;28;910;-61
2022/04/04 12:36:04;;;;;;;;;;;;;;;;;;5052568;28;1903;-61
2022/04/04 12:38:30;;;;;;;;;;;;;;;;;;5052438;28;813;-61
2022/04/04 12:41:03;;;;;;;;;;;;;;;;;;5051725;28;1089;-61
2022/04/04 12:43:29;;;;;;;;;;;;;;;;;;5052427;28;1562;-61
2022/04/04 12:45:54;;;;;;;;;;;;;;;;;;5052246;28;857;-61
2022/04/04 12:48:21;;;;;;;;;;;;;;;;;;5052282;28;967;-61
2022/04/04 12:50:47;;;;;;;;;;;;;;;;;;5052112;28;814;-61
2022/04/04 12:53:13;;;;;;;;;;;;;;;;;;5051945;28;1059;-61
2022/04/04 12:55:39;;;;;;;;;;;;;;;;;;5051984;28;1973;-61
2022/04/04 12:58:18;;;;;;;;;;;;;;;;;;5051747;28;932;-61
2022/04/04 13:00:44;;;;;;;;;;;;;;;;;;5052128;28;860;-61
2022/04/04 13:03:28;;;;;;;;;;;;;;;;;;5051038;28;896;-61
2022/04/04 13:05:55;;;;;;;;;;;;;;;;;;5051982;28;848;-61
2022/04/04 13:08:30;;;;;;;;;;;;;;;;;;5051857;28;758;-61
2022/04/04 13:11:02;;;;;;;;;;;;;;;;;;5051518;28;809;-61
2022/04/04 13:13:27;;;;;;;;;;;;;;;;;;5050764;28;1244;-60
2022/04/04 13:15:52;;;;;;;;;;;;;;;;;;5049828;28;1950;-61
2022/04/04 13:18:18;;;;;;;;;;;;;;;;;;5050318;28;1161;-61
2022/04/04 13:20:43;;;;;;;;;;;;;;;;;;5051601;28;829;-60
2022/04/04 13:23:08;;;;;;;;;;;;;;;;;;5051207;28;841;-61
2022/04/04 13:25:34;;;;;;;;;;;;;;;;;;5034107;28;783;-60
2022/04/04 13:27:59;;;;;;;;;;;;;;;;;;5051146;28;1063;-60
2022/04/04 13:30:24;;;;;;;;;;;;;;;;;;5051430;28;760;-60
2022/04/04 13:32:49;;;;;;;;;;;;;;;;;;5051861;28;833;-60
2022/04/04 13:35:14;;;;;;;;;;;;;;;;;;5050816;28;1968;-60
2022/04/04 13:37:40;;;;;;;;;;;;;;;;;;5051528;28;845;-61
2022/04/04 13:40:06;;;;;;;;;;;;;;;;;;5050852;28;1070;-60
2022/04/04 13:42:31;;;;;;;;;;;;;;;;;;5051825;28;868;-61
2022/04/04 13:44:57;;;;;;;;;;;;;;;;;;5051373;28;948;-61
2022/04/04 13:47:22;;;;;;;;;;;;;;;;;;5051162;28;821;-60
2022/04/04 13:49:47;;;;;;;;;;;;;;;;;;5051440;28;915;-60
2022/04/04 13:52:13;;;;;;;;;;;;;;;;;;5051121;28;833;-61
2022/04/04 13:54:39;;;;;;;;;;;;;;;;;;5051775;28;1934;-60
2022/04/04 13:57:04;;;;;;;;;;;;;;;;;;5049508;28;1189;-61
2022/04/04 13:59:30;;;;;;;;;;;;;;;;;;5050715;28;1004;-61
2022/04/04 14:01:55;;;;;;;;;;;;;;;;;;5051302;28;884;-61
2022/04/04 14:04:20;;;;;;;;;;;;;;;;;;5051524;28;948;-60
2022/04/04 14:06:46;;;;;;;;;;;;;;;;;;5033946;28;964;-60
2022/04/04 14:09:12;;;;;;;;;;;;;;;;;;5051206;28;892;-61
2022/04/04 14:11:37;;;;;;;;;;;;;;;;;;5051374;28;940;-61
2022/04/04 14:14:02;;;;;;;;;;;;;;;;;;5050851;28;924;-61
2022/04/04 14:16:28;;;;;;;;;;;;;;;;;;5050094;28;1972;-60
2022/04/04 14:18:53;;;;;;;;;;;;;;;;;;5050560;28;991;-60
2022/04/04 14:21:19;;;;;;;;;;;;;;;;;;5050352;28;934;-60
2022/04/04 14:23:45;;;;;;;;;;;;;;;;;;5050986;28;842;-61
2022/04/04 14:26:12;;;;;;;;;;;;;;;;;;5050744;28;975;-61
2022/04/04 14:28:37;;;;;;;;;;;;;;;;;;5051207;28;873;-61
2022/04/04 14:31:03;;;;;;;;;;;;;;;;;;5051507;28;790;-60
2022/04/04 14:33:29;;;;;;;;;;;;;;;;;;5050725;28;1236;-61
2022/04/04 14:35:54;;;;;;;;;;;;;;;;;;5051413;28;1898;-61
2022/04/04 14:38:20;;;;;;;;;;;;;;;;;;5051076;28;802;-61
2022/04/04 14:40:46;;;;;;;;;;;;;;;;;;5032917;28;1066;-61
2022/04/04 14:43:11;;;;;;;;;;;;;;;;;;5050367;28;833;-61
2022/04/04 14:45:37;;;;;;;;;;;;;;;;;;5050599;28;857;-61
2022/04/04 14:48:06;;;;;;;;;;;;;;;;;;5050632;28;828;-61
2022/04/04 14:50:31;;;;;;;;;;;;;;;;;;5050726;28;893;-61
2022/04/04 14:52:56;;;;;;;;;;;;;;;;;;5050756;28;778;-61
2022/04/04 14:55:22;;;;;;;;;;;;;;;;;;5050578;28;1902;-61
2022/04/04 14:57:47;;;;;;;;;;;;;;;;;;5051068;28;929;-61
2022/04/04 15:00:13;;;;;;;;;;;;;;;;;;5050461;28;897;-61
2022/04/04 15:02:39;;;;;;;;;;;;;;;;;;5051045;28;856;-61
2022/04/04 15:05:05;;;;;;;;;;;;;;;;;;5050770;28;790;-61
2022/04/04 15:07:30;;;;;;;;;;;;;;;;;;5050513;28;848;-62
2022/04/04 15:09:55;;;;;;;;;;;;;;;;;;5050647;28;849;-61
2022/04/04 15:12:21;;;;;;;;;;;;;;;;;;5050246;28;912;-61
2022/04/04 15:14:47;;;;;;;;;;;;;;;;;;5051001;28;1897;-61
2022/04/04 15:17:12;;;;;;;;;;;;;;;;;;5050586;28;842;-61
2022/04/04 15:19:37;;;;;;;;;;;;;;;;;;5032226;28;1271;-60
2022/04/04 15:22:03;;;;;;;;;;;;;;;;;;5050534;28;900;-61
2022/04/04 15:24:28;;;;;;;;;;;;;;;;;;5032294;28;1005;-60
2022/04/04 15:26:53;;;;;;;;;;;;;;;;;;5051337;28;904;-61
2022/04/04 15:29:19;;;;;;;;;;;;;;;;;;5053383;28;915;-61
2022/04/04 15:31:44;;;;;;;;;;;;;;;;;;5053998;28;862;-61
2022/04/04 15:34:09;;;;;;;;;;;;;;;;;;5053336;28;931;-61
2022/04/04 15:36:36;;;;;;;;;;;;;;;;;;5053694;28;1886;-61
2022/04/04 15:39:04;;;;;;;;;;;;;;;;;;5053820;28;903;-61
2022/04/04 15:41:31;;;;;;;;;;;;;;;;;;5052896;28;1083;-61
2022/04/04 15:43:56;;;;;;;;;;;;;;;;;;5053681;28;814;-61
2022/04/04 15:46:27;;;;;;;;;;;;;;;;;;5052802;28;848;-61
2022/04/04 15:48:53;;;;;;;;;;;;;;;;;;5053670;28;936;-61
2022/04/04 15:51:21;;;;;;;;;;;;;;;;;;5053182;28;929;-61
2022/04/04 15:53:47;;;;;;;;;;;;;;;;;;5053328;28;962;-61
2022/04/04 15:56:13;;;;;;;;;;;;;;;;;;5068611;28;1925;-61
2022/04/04 15:58:38;;;;;;;;;;;;;;;;;;5035370;28;1019;-61
2022/04/04 16:01:04;;;;;;;;;;;;;;;;;;5053455;28;928;-60
2022/04/04 16:03:29;;;;;;;;;;;;;;;;;;5052870;28;794;-61
2022/04/04 16:05:54;;;;;;;;;;;;;;;;;;5053125;28;884;-61
2022/04/04 16:08:20;;;;;;;;;;;;;;;;;;5053004;28;916;-61
2022/04/04 16:10:45;;;;;;;;;;;;;;;;;;5052982;28;829;-61
2022/04/04 16:13:10;;;;;;;;;;;;;;;;;;5052726;28;801;-61
2022/04/04 16:15:37;;;;;;;;;;;;;;;;;;5053069;28;1886;-61
2022/04/04 16:18:02;;;;;;;;;;;;;;;;;;5052848;28;858;-61
2022/04/04 16:20:29;;;;;;;;;;;;;;;;;;5052767;28;883;-61
2022/04/04 16:22:54;;;;;;;;;;;;;;;;;;5052812;28;1069;-61
2022/04/04 16:25:19;;;;;;;;;;;;;;;;;;5052394;28;845;-61
2022/04/04 16:27:46;;;;;;;;;;;;;;;;;;5052813;28;880;-60
2022/04/04 16:30:12;;;;;;;;;;;;;;;;;;5052898;28;841;-61
2022/04/04 16:32:38;;;;;;;;;;;;;;;;;;5034679;28;932;-61
2022/04/04 16:35:04;;;;;;;;;;;;;;;;;;5052617;28;1906;-61
2022/04/04 16:37:29;;;;;;;;;;;;;;;;;;5052356;28;928;-61
2022/04/04 16:39:54;;;;;;;;;;;;;;;;;;5052167;28;1177;-61
2022/04/04 16:42:24;;;;;;;;;;;;;;;;;;5052114;28;1010;-60
2022/04/04 16:44:55;;;;;;;;;;;;;;;;;;5052878;28;836;-61
2022/04/04 16:47:21;;;;;;;;;;;;;;;;;;5051962;28;858;-61
2022/04/04 16:49:46;;;;;;;;;;;;;;;;;;5052299;28;920;-61
2022/04/04 16:52:11;;;;;;;;;;;;;;;;;;5052433;28;852;-61
2022/04/04 16:54:36;;;;;;;;;;;;;;;;;;5051900;28;1910;-61
2022/04/04 16:57:02;;;;;;;;;;;;;;;;;;5034423;28;904;-61
2022/04/04 16:59:28;;;;;;;;;;;;;;;;;;5051175;28;1083;-61
2022/04/04 17:01:53;;;;;;;;;;;;;;;;;;5051930;28;1046;-61
2022/04/04 17:04:20;;;;;;;;;;;;;;;;;;5051895;28;1058;-61
2022/04/04 17:06:46;;;;;;;;;;;;;;;;;;5051580;28;1246;-62
2022/04/04 17:09:12;;;;;;;;;;;;;;;;;;5051840;28;789;-62
2022/04/04 17:11:38;;;;;;;;;;;;;;;;;;5051179;28;848;-59
2022/04/04 17:14:03;;;;;;;;;;;;;;;;;;5051649;28;987;-62
2022/04/04 17:16:29;;;;;;;;;;;;;;;;;;5051176;28;1901;-62
2022/04/04 17:18:54;;;;;;;;;;;;;;;;;;5051711;28;944;-62
2022/04/04 17:21:21;;;;;;;;;;;;;;;;;;5051353;28;817;-59